Terminal Aerodrome Forecast
Issued by NWS

Home | Current Version | Previous Version | Text Only | Print | Product List | Glossary On
Versions: 1 2 3 4 5 6 7 8 9 10 11 12 13 14 15 16 17 18 19 20
283
FTUS46 KEKA 061124
TAFCEC
TAF
KCEC 061124Z 0612/0712 22004KT 6SM -SHRA SCT015 BKN040
     FM061800 28008KT P6SM -SHRA BKN040
     FM062100 33011KT P6SM SCT050
     FM070200 02006KT 6SM BR SKC
     FM070900 08005KT P6SM SKC=

USA.gov is the U.S. government's official web portal to all federal, state and local government web resources and services.